Terminal Aerodrome Forecast
Issued by NWS Sioux Falls, SD

Home | Current Version | Previous Version | Graphics & Text | Print | Product List | Glossary Off
Versions: 1 2 3 4 5 6 7 8 9 10 11 12 13 14

000
FTUS43 KFSD 201123
TAFHON
TAF
KHON 201123Z 2012/2112 04009KT P6SM -SHRA OVC035
     FM201500 04012KT P6SM -SHRA OVC015
     FM201700 03012G17KT 4SM SHRA OVC015
     FM202200 02013G19KT 6SM -SHRA OVC010
     FM210200 36011KT P6SM -SHRA OVC008
     FM210600 33011KT P6SM OVC008=

USA.gov is the U.S. government's official web portal to all federal, state and local government web resources and services.